createdAt,value
2017-04-26T00:00:12.001Z,997.4
2017-04-26T00:01:12.015Z,997.43
2017-04-26T00:02:12.034Z,997.4
2017-04-26T00:03:12.050Z,997.46
2017-04-26T00:04:12.066Z,997.44
2017-04-26T00:05:12.082Z,997.47
2017-04-26T00:06:12.098Z,997.46
2017-04-26T00:07:12.115Z,997.43
2017-04-26T00:08:12.130Z,997.41
2017-04-26T00:09:12.145Z,997.39
2017-04-26T00:10:12.162Z,997.37
2017-04-26T00:11:12.177Z,997.39
2017-04-26T00:12:12.195Z,997.33
2017-04-26T00:13:12.210Z,997.31
2017-04-26T00:14:12.228Z,997.3
2017-04-26T00:15:12.243Z,997.3
2017-04-26T00:16:12.259Z,997.27
2017-04-26T00:17:12.274Z,997.24
2017-04-26T00:18:12.292Z,997.23
2017-04-26T00:19:12.306Z,997.26
2017-04-26T00:20:12.322Z,997.31
2017-04-26T00:21:12.342Z,997.32
2017-04-26T00:22:12.353Z,997.32
2017-04-26T00:23:12.370Z,997.33
2017-04-26T00:24:12.388Z,997.36
2017-04-26T00:25:12.403Z,997.36
2017-04-26T00:26:12.418Z,997.39
2017-04-26T00:27:12.435Z,997.44
2017-04-26T00:28:12.450Z,997.46
2017-04-26T00:29:12.467Z,997.45
2017-04-26T00:30:12.484Z,997.47
2017-04-26T00:31:12.498Z,997.52
2017-04-26T00:32:12.514Z,997.53
2017-04-26T00:33:12.528Z,997.56
2017-04-26T00:34:12.545Z,997.56
2017-04-26T00:35:12.560Z,997.52
2017-04-26T00:36:12.577Z,997.51
2017-04-26T00:37:12.593Z,997.44
2017-04-26T00:38:12.608Z,997.37
2017-04-26T00:39:12.624Z,997.31
2017-04-26T00:40:12.641Z,997.25
2017-04-26T00:41:12.655Z,997.23
2017-04-26T00:42:12.674Z,997.31
2017-04-26T00:43:12.690Z,997.27
2017-04-26T00:44:12.704Z,997.28
2017-04-26T00:45:12.718Z,997.35
2017-04-26T00:46:12.737Z,997.37
2017-04-26T00:47:12.752Z,997.46
2017-04-26T00:48:12.818Z,997.51
2017-04-26T00:49:12.783Z,997.51
2017-04-26T00:50:12.798Z,997.53
2017-04-26T00:51:12.814Z,997.56
2017-04-26T00:52:12.830Z,997.47
2017-04-26T00:53:12.846Z,997.42
2017-04-26T00:54:12.863Z,997.3
2017-04-26T00:55:12.877Z,997.27
2017-04-26T00:56:12.892Z,997.3
2017-04-26T00:57:12.908Z,997.32
2017-04-26T00:58:12.925Z,997.32
2017-04-26T00:59:12.939Z,997.32
2017-04-26T01:00:12.955Z,997.31
2017-04-26T01:01:12.970Z,997.28
2017-04-26T01:02:12.987Z,997.23
2017-04-26T01:03:13.001Z,997.24
2017-04-26T01:04:13.019Z,997.17
2017-04-26T01:05:13.037Z,997.16
2017-04-26T01:06:13.049Z,997.16
2017-04-26T01:07:13.065Z,997.13
2017-04-26T01:08:13.082Z,997.12
2017-04-26T01:09:13.096Z,997.12
2017-04-26T01:10:13.124Z,997.1
2017-04-26T01:11:13.131Z,997.13
2017-04-26T01:12:13.145Z,997.15
2017-04-26T01:13:13.161Z,997.17
2017-04-26T01:14:13.176Z,997.23
2017-04-26T01:15:13.191Z,997.23
2017-04-26T01:16:13.207Z,997.26
2017-04-26T01:17:13.226Z,997.27
2017-04-26T01:18:13.237Z,997.33
2017-04-26T01:19:13.255Z,997.43
2017-04-26T01:20:13.269Z,997.51
2017-04-26T01:21:13.403Z,997.61
2017-04-26T01:22:13.412Z,997.66
2017-04-26T01:23:13.421Z,997.66
2017-04-26T01:24:13.429Z,997.7
2017-04-26T01:25:13.456Z,997.69
2017-04-26T01:26:13.465Z,997.69
2017-04-26T01:27:13.377Z,997.71
2017-04-26T01:28:13.416Z,997.78
2017-04-26T01:29:13.408Z,997.78
2017-04-26T01:30:13.431Z,997.83
2017-04-26T01:31:13.439Z,997.82
2017-04-26T01:32:13.455Z,997.83
2017-04-26T01:33:13.589Z,997.83
2017-04-26T01:34:13.585Z,997.83
2017-04-26T01:35:13.525Z,997.86
2017-04-26T01:36:13.533Z,997.96
2017-04-26T01:37:13.544Z,997.94
2017-04-26T01:38:13.581Z,997.94
2017-04-26T01:39:13.565Z,997.91
2017-04-26T01:40:13.600Z,997.85
2017-04-26T01:41:13.609Z,997.8
2017-04-26T01:42:13.611Z,997.72
2017-04-26T01:43:13.656Z,997.75
2017-04-26T01:44:13.663Z,997.75
2017-04-26T01:45:13.744Z,997.73
2017-04-26T01:46:13.731Z,997.81
2017-04-26T01:47:13.740Z,997.82
2017-04-26T01:48:13.703Z,997.8
2017-04-26T01:49:13.757Z,997.79
2017-04-26T01:50:13.734Z,997.75
2017-04-26T01:51:13.751Z,997.73
2017-04-26T01:52:13.768Z,997.68
2017-04-26T01:53:13.780Z,997.61
2017-04-26T01:54:13.796Z,997.54
2017-04-26T01:55:13.810Z,997.55
2017-04-26T01:56:13.829Z,997.54
2017-04-26T01:57:13.840Z,997.55
2017-04-26T01:58:13.859Z,997.58
2017-04-26T01:59:13.871Z,997.7
2017-04-26T02:00:13.888Z,997.74
2017-04-26T02:01:13.904Z,997.83
2017-04-26T02:02:13.918Z,997.82
2017-04-26T02:03:13.936Z,997.84
2017-04-26T02:04:13.951Z,997.85
2017-04-26T02:05:13.962Z,997.87
2017-04-26T02:06:13.979Z,997.9
2017-04-26T02:07:13.996Z,997.93
2017-04-26T02:08:14.013Z,997.92
2017-04-26T02:09:14.029Z,997.95
2017-04-26T02:10:14.041Z,997.94
2017-04-26T02:11:14.055Z,997.93
2017-04-26T02:12:14.071Z,997.92
2017-04-26T02:13:14.088Z,997.89
2017-04-26T02:14:14.102Z,997.86
2017-04-26T02:15:14.116Z,997.84
2017-04-26T02:16:14.131Z,997.8
2017-04-26T02:17:14.147Z,997.78
2017-04-26T02:18:14.164Z,997.78
2017-04-26T02:19:14.175Z,997.83
2017-04-26T02:20:14.193Z,997.83
2017-04-26T02:21:14.208Z,997.78
2017-04-26T02:22:14.222Z,997.8
2017-04-26T02:23:14.236Z,997.78
2017-04-26T02:24:14.255Z,997.79
2017-04-26T02:25:14.268Z,997.82
2017-04-26T02:26:14.286Z,997.8
2017-04-26T02:27:14.299Z,997.8
2017-04-26T02:28:14.314Z,997.78
2017-04-26T02:29:14.329Z,997.8
2017-04-26T02:30:14.345Z,997.81
2017-04-26T02:31:14.362Z,997.75
2017-04-26T02:32:14.376Z,997.72
2017-04-26T02:33:14.391Z,997.64
2017-04-26T02:34:14.406Z,997.63
2017-04-26T02:35:14.421Z,997.6
2017-04-26T02:36:14.435Z,997.61
2017-04-26T02:37:14.452Z,997.62
2017-04-26T02:38:14.466Z,997.64
2017-04-26T02:39:14.483Z,997.63
2017-04-26T02:40:14.497Z,997.64
2017-04-26T02:41:14.511Z,997.64
2017-04-26T02:42:14.527Z,997.67
2017-04-26T02:43:14.542Z,997.66
2017-04-26T02:44:14.558Z,997.68
2017-04-26T02:45:14.573Z,997.7
2017-04-26T02:46:14.587Z,997.63
2017-04-26T02:47:14.603Z,997.61
2017-04-26T02:48:14.617Z,997.62
2017-04-26T02:49:14.634Z,997.6
2017-04-26T02:50:14.649Z,997.62
2017-04-26T02:51:14.665Z,997.67
2017-04-26T02:52:14.676Z,997.7
2017-04-26T02:53:14.694Z,997.68
2017-04-26T02:54:14.708Z,997.65
2017-04-26T02:55:14.724Z,997.66
2017-04-26T02:56:14.737Z,997.63
2017-04-26T02:57:14.754Z,997.67
2017-04-26T02:58:14.768Z,997.7
2017-04-26T02:59:14.784Z,997.71
2017-04-26T03:00:14.796Z,997.73
2017-04-26T03:01:14.812Z,997.75
2017-04-26T03:02:14.829Z,997.79
2017-04-26T03:03:14.844Z,997.78
2017-04-26T03:04:14.858Z,997.79
2017-04-26T03:05:14.872Z,997.81
2017-04-26T03:06:14.889Z,997.88
2017-04-26T03:07:14.905Z,997.87
2017-04-26T03:08:14.917Z,997.86
2017-04-26T03:09:14.933Z,997.84
2017-04-26T03:10:14.953Z,997.87
2017-04-26T03:11:14.964Z,997.9
2017-04-26T03:12:14.978Z,997.89
2017-04-26T03:13:14.993Z,997.9
2017-04-26T03:14:15.008Z,997.89
2017-04-26T03:15:15.022Z,997.92
2017-04-26T03:16:15.038Z,997.95
2017-04-26T03:17:15.053Z,997.92
2017-04-26T03:18:15.069Z,997.97
2017-04-26T03:19:15.083Z,998.01
2017-04-26T03:20:15.097Z,998.04
2017-04-26T03:21:15.114Z,998.02
2017-04-26T03:22:15.132Z,998.03
2017-04-26T03:23:15.144Z,997.99
2017-04-26T03:24:15.209Z,997.95
2017-04-26T03:25:15.173Z,997.96
2017-04-26T03:26:15.190Z,997.84
2017-04-26T03:27:15.204Z,997.86
2017-04-26T03:28:15.220Z,997.86
2017-04-26T03:29:15.234Z,997.93
2017-04-26T03:30:15.248Z,997.92
2017-04-26T03:31:15.264Z,997.89
2017-04-26T03:32:15.277Z,997.83
2017-04-26T03:33:15.296Z,997.76
2017-04-26T03:34:15.307Z,997.77
2017-04-26T03:35:15.323Z,997.75
2017-04-26T03:36:15.338Z,997.76
2017-04-26T03:37:15.353Z,997.79
2017-04-26T03:38:15.369Z,997.83
2017-04-26T03:39:15.384Z,997.87
2017-04-26T03:40:15.398Z,997.87
2017-04-26T03:41:15.413Z,997.88
2017-04-26T03:42:15.429Z,997.92
2017-04-26T03:43:15.442Z,997.93
2017-04-26T03:44:15.457Z,997.94
2017-04-26T03:45:15.473Z,997.91
2017-04-26T03:46:15.487Z,997.91
2017-04-26T03:47:15.502Z,997.92
2017-04-26T03:48:15.516Z,997.92
2017-04-26T03:49:15.531Z,997.87
2017-04-26T03:50:15.547Z,997.82
2017-04-26T03:51:15.561Z,997.81
2017-04-26T03:52:15.576Z,997.9
2017-04-26T03:53:15.593Z,997.98
2017-04-26T03:54:15.606Z,998
2017-04-26T03:55:15.621Z,998.04
2017-04-26T03:56:15.636Z,998.03
2017-04-26T03:57:15.652Z,997.97
2017-04-26T03:58:15.668Z,997.99
2017-04-26T03:59:15.679Z,998.04
2017-04-26T04:00:15.695Z,998.04
2017-04-26T04:01:15.710Z,998.04
2017-04-26T04:02:15.725Z,998.06
2017-04-26T04:03:15.741Z,998.09
2017-04-26T04:04:15.759Z,998.08
2017-04-26T04:05:15.768Z,998.18
2017-04-26T04:06:15.783Z,998.2
2017-04-26T04:07:15.799Z,998.16
2017-04-26T04:08:15.815Z,998.18
2017-04-26T04:09:15.828Z,998.17
2017-04-26T04:10:15.845Z,998.13
2017-04-26T04:11:15.859Z,998.12
2017-04-26T04:12:15.874Z,998.08
2017-04-26T04:13:15.887Z,998.05
2017-04-26T04:14:15.903Z,998.07
2017-04-26T04:15:15.920Z,998.05
2017-04-26T04:16:15.932Z,998.02
2017-04-26T04:17:15.947Z,998
2017-04-26T04:18:15.963Z,997.99
2017-04-26T04:19:15.978Z,998.02
2017-04-26T04:20:15.993Z,998.05
2017-04-26T04:21:16.006Z,998.04
2017-04-26T04:22:16.022Z,998.09
2017-04-26T04:23:16.039Z,998.11
2017-04-26T04:24:16.050Z,998.12
2017-04-26T04:25:16.065Z,998.14
2017-04-26T04:26:16.081Z,998.16
2017-04-26T04:27:16.094Z,998.17
2017-04-26T04:28:16.112Z,998.15
2017-04-26T04:29:16.126Z,998.14
2017-04-26T04:30:16.140Z,998.18
2017-04-26T04:31:16.155Z,998.16
2017-04-26T04:32:16.170Z,998.14
2017-04-26T04:33:16.184Z,998.15
2017-04-26T04:34:16.201Z,998.15
2017-04-26T04:35:16.216Z,998.13
2017-04-26T04:36:16.243Z,998.12
2017-04-26T04:37:16.244Z,998.14
2017-04-26T04:38:16.258Z,998.16
2017-04-26T04:39:16.273Z,998.14
2017-04-26T04:40:16.289Z,998.2
2017-04-26T04:41:16.303Z,998.14
2017-04-26T04:42:16.319Z,998.2
2017-04-26T04:43:16.333Z,998.2
2017-04-26T04:44:16.348Z,998.22
2017-04-26T04:45:16.362Z,998.19
2017-04-26T04:46:16.376Z,998.2
2017-04-26T04:47:16.392Z,998.21
2017-04-26T04:48:16.407Z,998.24
2017-04-26T04:49:16.421Z,998.24
2017-04-26T04:50:16.438Z,998.27
2017-04-26T04:51:16.451Z,998.29
2017-04-26T04:52:16.466Z,998.25
2017-04-26T04:53:16.481Z,998.23
2017-04-26T04:54:16.496Z,998.25
2017-04-26T04:55:16.512Z,998.28
2017-04-26T04:56:16.526Z,998.28
2017-04-26T04:57:16.540Z,998.31
2017-04-26T04:58:16.557Z,998.29
2017-04-26T04:59:16.572Z,998.33
2017-04-26T05:00:16.586Z,998.38
2017-04-26T05:01:16.600Z,998.37
2017-04-26T05:02:16.616Z,998.36
2017-04-26T05:03:16.631Z,998.35
2017-04-26T05:04:16.646Z,998.4
2017-04-26T05:05:16.659Z,998.39
2017-04-26T05:06:16.675Z,998.43
2017-04-26T05:07:16.689Z,998.42
2017-04-26T05:08:16.705Z,998.38
2017-04-26T05:09:16.720Z,998.4
2017-04-26T05:10:16.735Z,998.4
2017-04-26T05:11:16.749Z,998.4
2017-04-26T05:12:16.764Z,998.38
2017-04-26T05:13:16.779Z,998.42
2017-04-26T05:14:16.795Z,998.42
2017-04-26T05:15:16.808Z,998.4
2017-04-26T05:16:16.824Z,998.37
2017-04-26T05:17:16.838Z,998.38
2017-04-26T05:18:16.853Z,998.4
2017-04-26T05:19:16.869Z,998.41
2017-04-26T05:20:16.883Z,998.44
2017-04-26T05:21:16.897Z,998.41
2017-04-26T05:22:16.913Z,998.44
2017-04-26T05:23:16.928Z,998.43
2017-04-26T05:24:16.944Z,998.43
2017-04-26T05:25:16.958Z,998.43
2017-04-26T05:26:16.973Z,998.47
2017-04-26T05:27:16.987Z,998.48
2017-04-26T05:28:17.005Z,998.48
2017-04-26T05:29:17.017Z,998.5
2017-04-26T05:30:17.032Z,998.54
2017-04-26T05:31:17.048Z,998.54
2017-04-26T05:32:17.063Z,998.5
2017-04-26T05:33:17.077Z,998.54
2017-04-26T05:34:17.094Z,998.52
2017-04-26T05:35:17.110Z,998.5
2017-04-26T05:36:17.123Z,998.47
2017-04-26T05:37:17.138Z,998.47
2017-04-26T05:38:17.153Z,998.5
2017-04-26T05:39:17.169Z,998.52
2017-04-26T05:40:17.182Z,998.53
2017-04-26T05:41:17.195Z,998.52
2017-04-26T05:42:17.213Z,998.53
2017-04-26T05:43:17.228Z,998.53
2017-04-26T05:44:17.244Z,998.55
2017-04-26T05:45:17.258Z,998.5
2017-04-26T05:46:17.271Z,998.53
2017-04-26T05:47:17.287Z,998.52
2017-04-26T05:48:17.303Z,998.54
2017-04-26T05:49:17.319Z,998.53
2017-04-26T05:50:17.331Z,998.55
2017-04-26T05:51:17.345Z,998.55
2017-04-26T05:52:17.361Z,998.58
2017-04-26T05:53:17.376Z,998.6
2017-04-26T05:54:17.393Z,998.64
2017-04-26T05:55:17.405Z,998.64
2017-04-26T05:56:17.421Z,998.67
2017-04-26T05:57:17.436Z,998.68
2017-04-26T05:58:17.455Z,998.72
2017-04-26T05:59:17.488Z,998.72
2017-04-26T06:00:17.482Z,998.72
2017-04-26T06:01:17.497Z,998.69
2017-04-26T06:02:17.512Z,998.7
2017-04-26T06:03:17.554Z,998.75
2017-04-26T06:04:17.543Z,998.76
2017-04-26T06:05:17.557Z,998.77
2017-04-26T06:06:17.577Z,998.81
2017-04-26T06:07:17.587Z,998.85
2017-04-26T06:08:17.602Z,998.85
2017-04-26T06:09:17.617Z,998.9
2017-04-26T06:10:17.633Z,998.93
2017-04-26T06:11:17.648Z,998.95
2017-04-26T06:12:17.665Z,998.92
2017-04-26T06:13:17.677Z,998.94
2017-04-26T06:14:17.693Z,998.89
2017-04-26T06:15:17.708Z,998.9
2017-04-26T06:16:17.750Z,998.88
2017-04-26T06:17:17.738Z,998.91
2017-04-26T06:18:17.755Z,998.89
2017-04-26T06:19:17.768Z,998.88
2017-04-26T06:20:17.785Z,998.89
2017-04-26T06:21:17.800Z,998.85
2017-04-26T06:22:17.815Z,998.85
2017-04-26T06:23:17.832Z,998.82
2017-04-26T06:24:17.846Z,998.81
2017-04-26T06:25:17.859Z,998.82
2017-04-26T06:26:17.877Z,998.8
2017-04-26T06:27:17.891Z,998.82
2017-04-26T06:28:17.909Z,998.85
2017-04-26T06:29:17.923Z,998.85
2017-04-26T06:30:17.937Z,998.86
2017-04-26T06:31:17.952Z,998.84
2017-04-26T06:32:17.969Z,998.86
2017-04-26T06:33:17.983Z,998.87
2017-04-26T06:34:17.998Z,998.83
2017-04-26T06:35:18.013Z,998.84
2017-04-26T06:36:18.029Z,998.87
2017-04-26T06:37:18.045Z,998.89
2017-04-26T06:38:18.061Z,998.9
2017-04-26T06:39:18.076Z,998.93
2017-04-26T06:40:18.090Z,998.91
2017-04-26T06:41:18.107Z,998.92
2017-04-26T06:42:18.123Z,998.91
2017-04-26T06:43:18.137Z,998.89
2017-04-26T06:44:18.155Z,998.86
2017-04-26T06:45:18.169Z,998.88
2017-04-26T06:46:18.185Z,998.91
2017-04-26T06:47:18.198Z,998.9
2017-04-26T06:48:18.216Z,998.92
2017-04-26T06:49:18.230Z,998.93
2017-04-26T06:50:18.246Z,998.98
2017-04-26T06:51:18.270Z,998.99
2017-04-26T06:52:18.277Z,999.02
2017-04-26T06:53:18.292Z,999
2017-04-26T06:54:18.307Z,999.01
2017-04-26T06:55:18.324Z,999.03
2017-04-26T06:56:18.337Z,999.02
2017-04-26T06:57:18.353Z,999.04
2017-04-26T06:58:18.372Z,999.04
2017-04-26T06:59:18.385Z,999.08
2017-04-26T07:00:18.403Z,999.1
2017-04-26T07:01:18.416Z,999.18
2017-04-26T07:02:18.431Z,999.18
2017-04-26T07:03:18.448Z,999.2
2017-04-26T07:04:18.464Z,999.12
2017-04-26T07:05:18.479Z,999.16
2017-04-26T07:06:18.493Z,999.12
2017-04-26T07:07:18.509Z,999.15
2017-04-26T07:08:18.524Z,999.11
2017-04-26T07:09:18.542Z,999.1
2017-04-26T07:10:18.556Z,999.15
2017-04-26T07:11:18.573Z,999.12
2017-04-26T07:12:18.589Z,999.08
2017-04-26T07:13:18.605Z,999.02
2017-04-26T07:14:18.619Z,999.03
2017-04-26T07:15:18.636Z,998.99
2017-04-26T07:16:18.651Z,999.01
2017-04-26T07:17:18.667Z,999.03
2017-04-26T07:18:18.684Z,999.04
2017-04-26T07:19:18.699Z,999.09
2017-04-26T07:20:18.714Z,999.07
2017-04-26T07:21:18.729Z,999.07
2017-04-26T07:22:18.747Z,999.09
2017-04-26T07:23:18.763Z,999.11
2017-04-26T07:24:18.779Z,999.07
2017-04-26T07:25:18.795Z,999.09
2017-04-26T07:26:18.809Z,999.08
2017-04-26T07:27:18.826Z,999.05
2017-04-26T07:28:18.841Z,999.05
2017-04-26T07:29:18.857Z,999.08
2017-04-26T07:30:18.873Z,999.08
2017-04-26T07:31:18.889Z,999.11
2017-04-26T07:32:18.905Z,999.09
2017-04-26T07:33:18.922Z,999.09
2017-04-26T07:34:18.936Z,999.09
2017-04-26T07:35:18.954Z,999.09
2017-04-26T07:36:18.972Z,999.06
2017-04-26T07:37:18.985Z,999.07
2017-04-26T07:38:19.002Z,999.12
2017-04-26T07:39:19.019Z,999.15
2017-04-26T07:40:19.033Z,999.18
2017-04-26T07:41:19.048Z,999.17
2017-04-26T07:42:19.066Z,999.19
2017-04-26T07:43:19.084Z,999.18
2017-04-26T07:44:19.100Z,999.16
2017-04-26T07:45:19.113Z,999.1
2017-04-26T07:46:19.129Z,999.08
2017-04-26T07:47:19.146Z,999.07
2017-04-26T07:48:19.163Z,999.07
2017-04-26T07:49:19.179Z,999.06
2017-04-26T07:50:19.195Z,999.05
2017-04-26T07:51:19.211Z,999.05
2017-04-26T07:52:19.227Z,999.08
2017-04-26T07:53:19.242Z,999.08
2017-04-26T07:54:19.261Z,999.02
2017-04-26T07:55:19.277Z,999.03
2017-04-26T07:56:19.292Z,999.03
2017-04-26T07:57:19.307Z,999.04
2017-04-26T07:58:19.324Z,999.03
2017-04-26T07:59:19.340Z,999
2017-04-26T08:00:19.357Z,999.03
2017-04-26T08:01:19.374Z,999.01
2017-04-26T08:02:19.390Z,999.04
2017-04-26T08:03:19.404Z,999.02
2017-04-26T08:04:19.422Z,998.97
2017-04-26T08:05:19.437Z,999
2017-04-26T08:06:19.457Z,999.04
2017-04-26T08:07:19.471Z,998.97
2017-04-26T08:08:19.488Z,998.98
2017-04-26T08:09:19.505Z,998.98
2017-04-26T08:10:19.522Z,998.99
2017-04-26T08:11:19.536Z,998.98
2017-04-26T08:12:19.555Z,998.99
2017-04-26T08:13:19.570Z,999.01
2017-04-26T08:14:19.585Z,998.98
2017-04-26T08:15:19.606Z,999
2017-04-26T08:16:19.618Z,999
2017-04-26T08:17:19.635Z,998.96
2017-04-26T08:18:19.651Z,998.94
2017-04-26T08:19:19.669Z,998.94
2017-04-26T08:20:19.691Z,998.93
2017-04-26T08:21:19.701Z,998.89
2017-04-26T08:22:19.718Z,998.92
2017-04-26T08:23:19.734Z,998.89
2017-04-26T08:24:19.751Z,998.83
2017-04-26T08:25:19.767Z,998.83
2017-04-26T08:26:19.785Z,998.89
2017-04-26T08:27:19.800Z,998.91
2017-04-26T08:28:19.816Z,998.92
2017-04-26T08:29:19.834Z,998.98
2017-04-26T08:30:19.849Z,999
2017-04-26T08:31:19.867Z,998.96
2017-04-26T08:32:19.882Z,998.98
2017-04-26T08:33:19.899Z,999.02
2017-04-26T08:34:19.917Z,998.97
2017-04-26T08:35:19.934Z,999.02
2017-04-26T08:36:19.948Z,998.94
2017-04-26T08:37:19.966Z,998.96
2017-04-26T08:38:19.985Z,998.94
2017-04-26T08:39:20.001Z,998.96
2017-04-26T08:40:20.019Z,999.01
2017-04-26T08:41:20.033Z,999.03
2017-04-26T08:42:20.051Z,999.04
2017-04-26T08:43:20.066Z,999.06
2017-04-26T08:44:20.083Z,999.08
2017-04-26T08:45:20.101Z,999.13
2017-04-26T08:46:20.118Z,999.1
2017-04-26T08:47:20.135Z,999.09
2017-04-26T08:48:20.152Z,999.11
2017-04-26T08:49:20.168Z,999.07
2017-04-26T08:50:20.185Z,999.07
2017-04-26T08:51:20.202Z,998.99
2017-04-26T08:52:20.218Z,999.04
2017-04-26T08:53:20.237Z,999.03
2017-04-26T08:54:20.257Z,999.06
2017-04-26T08:55:20.270Z,998.95
2017-04-26T08:56:20.289Z,998.98
2017-04-26T08:57:20.306Z,998.95
2017-04-26T08:58:20.325Z,998.95
2017-04-26T08:59:20.340Z,998.94
2017-04-26T09:00:20.358Z,998.96
2017-04-26T09:01:20.375Z,998.96
2017-04-26T09:02:20.392Z,998.96
2017-04-26T09:03:20.411Z,998.98
2017-04-26T09:04:20.428Z,999.06
2017-04-26T09:05:20.444Z,999.07
2017-04-26T09:06:20.463Z,999.05
2017-04-26T09:07:20.480Z,999.05
2017-04-26T09:08:20.498Z,999.05
2017-04-26T09:09:20.516Z,999.05
2017-04-26T09:10:20.534Z,999.05
2017-04-26T09:11:20.552Z,999.01
2017-04-26T09:12:20.568Z,999
2017-04-26T09:13:20.586Z,999.06
2017-04-26T09:14:20.607Z,999.08
2017-04-26T09:15:20.624Z,999.09
2017-04-26T09:16:20.639Z,999.12
2017-04-26T09:17:20.659Z,999.2
2017-04-26T09:18:20.677Z,999.22
2017-04-26T09:19:20.695Z,999.29
2017-04-26T09:20:20.714Z,999.26
2017-04-26T09:21:20.732Z,999.22
2017-04-26T09:22:20.749Z,999.23
2017-04-26T09:23:20.766Z,999.25
2017-04-26T09:24:20.785Z,999.29
2017-04-26T09:25:20.804Z,999.29
2017-04-26T09:26:20.822Z,999.34
2017-04-26T09:27:20.842Z,999.31
2017-04-26T09:28:20.859Z,999.33
2017-04-26T09:29:20.878Z,999.32
2017-04-26T09:30:20.899Z,999.34
2017-04-26T09:31:20.915Z,999.36
2017-04-26T09:32:20.934Z,999.31
2017-04-26T09:33:20.953Z,999.34
2017-04-26T09:34:20.971Z,999.35
2017-04-26T09:35:20.990Z,999.3
2017-04-26T09:36:21.008Z,999.32
2017-04-26T09:37:21.028Z,999.3
2017-04-26T09:38:21.046Z,999.32
2017-04-26T09:39:21.087Z,999.32
2017-04-26T09:40:21.085Z,999.35
2017-04-26T09:41:21.104Z,999.34
2017-04-26T09:42:21.124Z,999.34
2017-04-26T09:43:21.143Z,999.36
2017-04-26T09:44:21.162Z,999.37
2017-04-26T09:45:21.180Z,999.37
2017-04-26T09:46:21.199Z,999.31
2017-04-26T09:47:21.222Z,999.3
2017-04-26T09:48:21.239Z,999.31
2017-04-26T09:49:21.259Z,999.32
2017-04-26T09:50:21.276Z,999.35
2017-04-26T09:51:21.298Z,999.32
2017-04-26T09:52:21.315Z,999.35
2017-04-26T09:53:21.334Z,999.34
2017-04-26T09:54:21.354Z,999.38
2017-04-26T09:55:21.373Z,999.39
2017-04-26T09:56:21.393Z,999.43
2017-04-26T09:57:21.413Z,999.41
2017-04-26T09:58:21.431Z,999.44
2017-04-26T09:59:21.450Z,999.45
2017-04-26T10:00:21.471Z,999.45
2017-04-26T10:01:21.489Z,999.47
2017-04-26T10:02:21.509Z,999.46
2017-04-26T10:03:21.530Z,999.46
2017-04-26T10:04:21.550Z,999.39
2017-04-26T10:05:21.569Z,999.42
2017-04-26T10:06:21.588Z,999.47
2017-04-26T10:07:21.608Z,999.44
2017-04-26T10:08:21.627Z,999.45
2017-04-26T10:09:21.648Z,999.47
2017-04-26T10:10:21.668Z,999.41
2017-04-26T10:11:21.687Z,999.39
2017-04-26T10:12:21.707Z,999.37
2017-04-26T10:13:21.726Z,999.37
2017-04-26T10:14:21.749Z,999.33
2017-04-26T10:15:21.769Z,999.33
2017-04-26T10:16:21.788Z,999.3
2017-04-26T10:17:21.807Z,999.24
2017-04-26T10:18:21.827Z,999.24
2017-04-26T10:19:21.846Z,999.24
2017-04-26T10:20:21.868Z,999.28
2017-04-26T10:21:21.888Z,999.29
2017-04-26T10:22:21.907Z,999.31
2017-04-26T10:23:21.926Z,999.28
2017-04-26T10:24:21.948Z,999.27
2017-04-26T10:25:21.968Z,999.28
2017-04-26T10:26:21.987Z,999.27
2017-04-26T10:27:22.008Z,999.26
2017-04-26T10:28:22.029Z,999.25
2017-04-26T10:29:22.047Z,999.21
2017-04-26T10:30:22.089Z,999.2
2017-04-26T10:31:22.093Z,999.2
2017-04-26T10:32:22.109Z,999.14
2017-04-26T10:33:22.130Z,999.21
2017-04-26T10:34:22.199Z,999.23
2017-04-26T10:35:22.176Z,999.17
2017-04-26T10:36:22.193Z,999.19
2017-04-26T10:37:22.211Z,999.13
2017-04-26T10:38:22.233Z,999.12
2017-04-26T10:39:22.251Z,999.15
2017-04-26T10:40:22.271Z,999.14
2017-04-26T10:41:22.292Z,999.14
2017-04-26T10:42:22.312Z,999.15
2017-04-26T10:43:22.333Z,999.16
2017-04-26T10:44:22.359Z,999.14
2017-04-26T10:45:22.373Z,999.16
2017-04-26T10:46:22.400Z,999.21
2017-04-26T10:47:22.415Z,999.18
2017-04-26T10:48:22.439Z,999.24
2017-04-26T10:49:22.455Z,999.27
2017-04-26T10:50:22.476Z,999.28
2017-04-26T10:51:22.497Z,999.37
2017-04-26T10:52:22.517Z,999.41
2017-04-26T10:53:22.537Z,999.42
2017-04-26T10:54:22.558Z,999.44
2017-04-26T10:55:22.692Z,999.46
2017-04-26T10:56:22.721Z,999.49
2017-04-26T10:57:22.718Z,999.54
2017-04-26T10:58:22.726Z,999.54
2017-04-26T10:59:22.765Z,999.55
2017-04-26T11:00:22.774Z,999.53
2017-04-26T11:01:22.804Z,999.51
2017-04-26T11:02:22.812Z,999.51
2017-04-26T11:03:22.960Z,999.49
2017-04-26T11:04:22.859Z,999.52
2017-04-26T11:05:22.878Z,999.53
2017-04-26T11:06:22.907Z,999.51
2017-04-26T11:07:22.915Z,999.54
2017-04-26T11:08:22.934Z,999.48
2017-04-26T11:09:22.943Z,999.53
2017-04-26T11:10:22.973Z,999.51
2017-04-26T11:11:22.980Z,999.53
2017-04-26T11:12:22.989Z,999.54
2017-04-26T11:13:22.998Z,999.52
2017-04-26T11:14:23.008Z,999.55
2017-04-26T11:15:23.006Z,999.54
2017-04-26T11:16:23.016Z,999.53
2017-04-26T11:17:23.031Z,999.48
2017-04-26T11:18:23.051Z,999.51
2017-04-26T11:19:23.073Z,999.49
2017-04-26T11:20:23.094Z,999.51
2017-04-26T11:21:23.115Z,999.49
2017-04-26T11:22:23.135Z,999.51
2017-04-26T11:23:23.154Z,999.54
2017-04-26T11:24:23.176Z,999.49
2017-04-26T11:25:23.197Z,999.54
2017-04-26T11:26:23.217Z,999.55
2017-04-26T11:27:23.237Z,999.55
2017-04-26T11:28:23.261Z,999.54
2017-04-26T11:29:23.278Z,999.53
2017-04-26T11:30:23.301Z,999.57
2017-04-26T11:31:23.320Z,999.63
2017-04-26T11:32:23.341Z,999.63
2017-04-26T11:33:23.362Z,999.64
2017-04-26T11:34:23.384Z,999.65
2017-04-26T11:35:23.402Z,999.71
2017-04-26T11:36:23.424Z,999.65
2017-04-26T11:37:23.445Z,999.66
2017-04-26T11:38:23.467Z,999.69
2017-04-26T11:39:23.485Z,999.66
2017-04-26T11:40:23.506Z,999.69
2017-04-26T11:41:23.526Z,999.68
2017-04-26T11:42:23.546Z,999.65
2017-04-26T11:43:23.567Z,999.66
2017-04-26T11:44:23.588Z,999.66
2017-04-26T11:45:23.610Z,999.66
2017-04-26T11:46:23.629Z,999.65
2017-04-26T11:47:23.650Z,999.61
2017-04-26T11:48:23.671Z,999.61
2017-04-26T11:49:23.691Z,999.58
2017-04-26T11:50:23.713Z,999.57
2017-04-26T11:51:23.735Z,999.59
2017-04-26T11:52:23.754Z,999.58
2017-04-26T11:53:23.775Z,999.58
2017-04-26T11:54:23.796Z,999.54
2017-04-26T11:55:23.818Z,999.6
2017-04-26T11:56:23.838Z,999.57
2017-04-26T11:57:23.858Z,999.58
2017-04-26T11:58:23.878Z,999.52
2017-04-26T11:59:23.898Z,999.55
2017-04-26T12:00:23.919Z,999.49
2017-04-26T12:01:23.941Z,999.54
2017-04-26T12:02:23.962Z,999.56
2017-04-26T12:03:23.982Z,999.57
2017-04-26T12:04:24.003Z,999.62
2017-04-26T12:05:24.023Z,999.57
2017-04-26T12:06:24.043Z,999.59
2017-04-26T12:07:24.068Z,999.53
2017-04-26T12:08:24.084Z,999.52
2017-04-26T12:09:24.106Z,999.55
2017-04-26T12:10:24.127Z,999.57
2017-04-26T12:11:24.147Z,999.57
2017-04-26T12:12:24.168Z,999.58
2017-04-26T12:13:24.190Z,999.56
2017-04-26T12:14:24.210Z,999.58
2017-04-26T12:15:24.232Z,999.56
2017-04-26T12:16:24.252Z,999.55
2017-04-26T12:17:24.274Z,999.52
2017-04-26T12:18:24.294Z,999.53
2017-04-26T12:19:24.314Z,999.53
2017-04-26T12:20:24.335Z,999.53
2017-04-26T12:21:24.358Z,999.57
2017-04-26T12:22:24.378Z,999.58
2017-04-26T12:23:24.399Z,999.6
2017-04-26T12:24:24.420Z,999.58
2017-04-26T12:25:24.441Z,999.61
2017-04-26T12:26:24.461Z,999.64
2017-04-26T12:27:24.484Z,999.58
2017-04-26T12:28:24.504Z,999.62
2017-04-26T12:29:24.526Z,999.58
2017-04-26T12:30:24.547Z,999.63
2017-04-26T12:31:24.571Z,999.58